• Join FlightAware (Why Join?)
  • Login
  • US Flag 
04:02PM EDT


 

Airport Tracker/Info


-or-


 

Live Flight TrackerFlight Track Log ✈ AAL1326 ✈ 10-May-2013 ✈ KMCI - KORD

Flight Track Log - Related Links

Times and Time Zones

All times are in EDT time to prevent confusion due to time zone crossing. See the AAL1326 flight status page for this flight to view local times or setup timezone preferences in your user account.

Time Position Orientation Groundspeed Altitude Reporting Facility
EDT Latitude Longitude Course Direction KTS MPH feet Rate Location/Type
05:13PM 39.3167 -94.7000 48° Northeast 164 189 1,600  Level Kansas City TRACON
05:14PM 39.3500 -94.6667 38° Northeast 209 241 3,700 2,400 Climbing Kansas City TRACON
05:15PM 39.4162 -94.5636 43° Northeast  Level FlightAware Approximate
05:15PM 39.3928 -94.6281 35° Northeast 234 269 5,800  Level Kansas City Center
05:16PM 39.4943 -94.4682 43° Northeast  Level FlightAware Approximate
05:16PM 39.4439 -94.5678 42° Northeast 258 297 7,500  Level Kansas City Center
05:17PM 39.5708 -94.3704 48° Northeast  Level FlightAware Approximate
05:17PM 39.5050 -94.4881 45° Northeast 278 320 9,600  Level Kansas City Center
05:18PM 39.6430 -94.2673 48° Northeast  Level FlightAware Approximate
05:18PM 39.5586 -94.4167 46° Northeast 293 337 11,400  Level Kansas City Center
05:19PM 39.6261 -94.3247 46° Northeast 316 364 13,900 2,220 Climbing Kansas City Center
05:20PM 39.6906 -94.2483 42° Northeast 327 376 16,000 2,160 Climbing Kansas City Center
05:21PM 39.7653 -94.1492 46° Northeast 345 397 18,400 1,980 Climbing Kansas City Center
05:22PM 39.8264 -94.0683 45° Northeast 358 412 20,200 1,740 Climbing Kansas City Center
05:23PM 39.8939 -93.9675 49° Northeast 373 429 22,000 1,860 Climbing Kansas City Center
05:24PM 39.9361 -93.8058 71° East 398 458 24,100 1,860 Climbing Kansas City Center
05:25PM 39.9733 -93.6678 71° East 404 465 25,900 1,560 Climbing Kansas City Center
05:26PM 40.0125 -93.5272 70° East 412 474 27,400 1,080 Climbing Kansas City Center
05:27PM 40.0503 -93.3842 71° East 419 482 28,200 660 Climbing Kansas City Center
05:28PM 40.0872 -93.2383 72° East 424 488 28,800 360 Climbing Kansas City Center
05:29PM 40.1344 -93.0625 71° East 431 496 29,000 60 Climbing Kansas City Center
05:30PM 40.1753 -92.9083 71° East 431 496 29,000  Level Kansas City Center
05:31PM 40.2122 -92.7661 71° East 431 496 29,000 120 Level Kansas City Center
05:32PM 40.2542 -92.5997 72° East 431 496 29,300 480 Climbing Kansas City Center
05:33PM 40.2922 -92.4506 71° East 442 509 30,000 600 Climbing Kansas City Center
05:35PM 40.3344 -92.2900 71° East 461 531 30,600 420 Climbing Kansas City Center
05:36PM 40.3761 -92.1242 72° East 478 550 30,900 180 Climbing Kansas City Center
05:37PM 40.4242 -91.9267 72° East 479 551 31,000  Climbing Kansas City Center
05:38PM 40.4653 -91.7614 72° East 480 552 31,000  Level Kansas City Center
05:39PM 40.5047 -91.5969 72° East 477 549 31,000  Level Kansas City Center
05:39PM 40.5286 -91.4981 72° East 477 549 31,000  Level Chicago Center
05:40PM 40.5847 -91.3042 69° East 477 549 31,000  Level Chicago Center
05:41PM 40.6369 -91.1647 64° Northeast 480 552 31,000  Level Chicago Center
05:42PM 40.7014 -90.9728 66° East 477 549 31,000  Level Chicago Center
05:43PM 40.7556 -90.8125 66° East 478 550 31,000  Level Chicago Center
05:45PM 40.8100 -90.6517 66° East 479 551 31,000  Level Chicago Center
05:46PM 40.8633 -90.4908 66° East 476 548 31,000  Level Chicago Center
05:47PM 40.9183 -90.3281 66° East 481 554 31,000 -480 Level Chicago Center
05:48PM 40.9769 -90.1486 67° East 481 554 30,100 -1,560 Descending Chicago Center
05:49PM 41.0267 -90.0008 66° East 481 554 27,800 -2,160 Descending Chicago Center
05:50PM 41.0789 -89.8400 67° East 472 543 25,700 -1,980 Descending Chicago Center
05:51PM 41.1392 -89.6547 67° East 456 525 23,700 -1,980 Descending Chicago Center
05:52PM 41.1933 -89.5058 64° Northeast 449 517 21,600 -2,280 Descending Chicago Center
05:53PM 41.2500 -89.3706 61° Northeast 424 488 19,100 -1,800 Descending Chicago Center
05:54PM 41.3025 -89.2367 62° Northeast 411 473 18,000 -1,260 Descending Chicago Center
05:55PM 41.3553 -89.1036 62° Northeast 403 464 16,500 -1,800 Descending Chicago Center
05:56PM 41.4056 -88.9769 62° Northeast 392 451 14,300 -2,280 Descending Chicago Center
05:57PM 41.4614 -88.8333 63° Northeast 368 423 11,900 -1,620 Descending Chicago Center
05:58PM 41.5053 -88.7233 62° Northeast 347 399 11,000 -480 Descending Chicago Center
05:59PM 41.5450 -88.6242 62° Northeast 312 359 11,000  Level Chicago Center
06:00PM 41.5797 -88.5236 65° Northeast 301 346 11,000 -480 Level Chicago Center
06:01PM 41.5947 -88.4136 80° East 303 349 10,000 -1,260 Descending Chicago Center
06:02PM 41.6219 -88.2914 73° East 289 333 8,400 -960 Descending Chicago Center
06:03PM 41.6792 -88.2231 42° Northeast 279 321 8,000 -660 Descending Chicago Center
06:04PM 41.7350 -88.1550 42° Northeast 272 313 7,100 -1,200 Descending Chicago Center
06:05PM 41.7894 -88.0931 40° Northeast 265 305 5,600 -1,380 Descending Chicago Center
06:06PM 41.8378 -88.0369 41° Northeast 248 285 4,300 -1,380 Descending Chicago Center
06:07PM 41.8833 -87.9833 41° Northeast 167 192 2,700 -1,500 Descending Chicago TRACON